Andrews, TX (79714)

7:11 AM CDT on June 21, 2018 (GMT -0500)
NW Andrews | | Change Station
Active Advisory: Special Statement

Elev 3199 ft 32.33 °N, 102.57 °W | Updated 2 minutes ago

Clear
Clear
70.9 °F
Feels Like 77 °F
N
0
Wind Variable Wind from SSE
Gusts 0.0 mph

Today
High -- | Low -- °F
--% Chance of Precip.
Yesterday
High -- | Low -- °F
Precip. -- in
Pressure 30.07 in
Visibility 10.0 miles
Clouds Clear
Heat Index 77 °F
Dew Point 52 °F
Humidity 53%
Rainfall 0.00 in
Snow Depth Not available.
6:43 AM 9:00 PM
First Quarter, 61% visible
METAR KE11 211155Z AUTO 00000KT 10SM CLR 20/20 A3007 RMK AO2 T02000200 10235 20200
Pressure 30.07 in
Visibility 10.0 miles
Clouds Clear
Heat Index 77 °F
Dew Point 52 °F
Humidity 53%
Rainfall 0.00 in
Snow Depth Not available.
6:43 AM 9:00 PM
First Quarter, 61% visible
METAR KE11 211155Z AUTO 00000KT 10SM CLR 20/20 A3007 RMK AO2 T02000200 10235 20200

Get Your Daily Forecast Email!

Thanks for signing up!

Be on the lookout for a verification email in your inbox.

You'll start receiving severe weather alerts in your inbox..

×

10-Day Weather Forecast

Almanac

Astronomy

Jun. 21, 2018 Rise Set
Actual Time
Civil Twilight
Nautical Twilight
Astronomical Twilight
Moon
Length of Visible Light
Length of Day
Tomorrow will be .
, % of the Moon is Illuminated

Today's Extremes

State Highs State Lows

Community

WunderPhotos

Category 6

Welcome to Category 6. This is the collective home for Weather Underground's featured writeups by Dr. Jeff Masters (right), Bob Henson (left), Chris Burt, and other regular contributors.

Nearby

Air Quality

  Air Quality AQ Index Pollutant
Not available.

Snow Depth

Station Depth Elevation

Earthquake Activity

City Distance Mag. Time & Date
Minimum magnitude displayed is 2.5.

Coastal Water Temperatures

Place Temperature

Stations

Nearby Weather Stations

Station Location Temp. Windchill Dew Point Humidity Wind Precip. Elev Updated Type
                   

Watches & Warnings

Special Statement
Issued: 2:45 AM MDT Jun. 21, 2018 – National Weather Service

... Hot temperatures to return Friday through Sunday...

A strengthening upper ridge and drier airmass will result in
strong heating across the area Friday through Sunday. Temperatures
are expected to reach above 105 degrees in many locations, with
temperatures near 110 degrees along the Pecos River and Rio
Grande. Cooler temperatures are anticipated next week.

If you plan to be outside in the heat, take plenty of breaks,
especially during the hottest parts of the day. Wear light-
colored and loose-fitting clothing. Drink plenty of water, even
if you do not feel thirsty. Avoid alcoholic or caffeinated
beverages. Think about others! Never leave children in a car on
even a moderately warm day as conditions in the car can quickly
heat to unhealthy levels. Check on the elderly or other people at
risk.


44